Time;durP1;ratioP1;P1;durP2;ratioP2;P2;SDS_P1;SDS_P2;PMS_P1;PMS_P2;Temp;Humidity;BMP_temperature;BMP_pressure;BME280_temperature;BME280_humidity;BME280_pressure;Samples;Min_cycle;Max_cycle;Signal;HPM_P1;HPM_P2
2022/01/08 00:00:06;;;;;;;2.63;1.40;;;;;;;1.63;98.84;100754.59;5004346;28;20075;-75
2022/01/08 00:02:34;;;;;;;2.05;1.48;;;;;;;1.58;98.97;100754.88;5005279;28;20123;-75
2022/01/08 00:05:01;;;;;;;3.20;2.20;;;;;;;1.52;98.87;100768.09;4989542;28;20081;-74
2022/01/08 00:07:28;;;;;;;3.65;2.33;;;;;;;1.47;99.11;100767.41;5003469;28;20428;-74
2022/01/08 00:09:54;;;;;;;2.45;1.63;;;;;;;1.37;99.12;100779.03;5003058;28;20743;-74
2022/01/08 00:12:22;;;;;;;2.58;1.75;;;;;;;1.32;98.84;100778.41;5005783;28;20045;-74
2022/01/08 00:14:49;;;;;;;2.60;1.90;;;;;;;1.31;98.85;100779.31;4982795;28;20064;-74
2022/01/08 00:17:16;;;;;;;3.00;1.77;;;;;;;1.34;98.97;100772.25;5004546;28;20053;-73
2022/01/08 00:19:44;;;;;;;2.40;1.45;;;;;;;1.29;99.46;100774.19;5002006;28;20175;-74
2022/01/08 00:22:11;;;;;;;3.70;1.70;;;;;;;1.24;99.39;100785.63;5002391;28;20073;-72
2022/01/08 00:24:37;;;;;;;4.13;2.05;;;;;;;1.23;99.43;100783.94;5002091;28;20049;-74
2022/01/08 00:27:05;;;;;;;1.45;1.35;;;;;;;1.14;99.65;100787.75;5006388;28;20451;-73
2022/01/08 00:29:31;;;;;;;3.67;1.48;;;;;;;1.09;99.27;100788.84;5002964;28;20056;-74
2022/01/08 00:31:58;;;;;;;6.43;1.55;;;;;;;1.07;99.73;100782.88;5000829;28;20041;-73
2022/01/08 00:34:25;;;;;;;2.15;1.60;;;;;;;1.03;99.36;100782.16;5005652;28;20050;-72
2022/01/08 00:36:53;;;;;;;10.38;2.95;;;;;;;1.12;99.18;100791.28;5001117;28;20038;-74
2022/01/08 00:39:19;;;;;;;2.78;1.48;;;;;;;1.06;99.24;100783.78;5003979;28;20049;-75
2022/01/08 00:41:46;;;;;;;1.85;1.55;;;;;;;1.08;99.57;100784.56;5005056;28;20147;-73
2022/01/08 00:44:16;;;;;;;2.92;1.75;;;;;;;1.05;99.29;100795.03;5006043;28;20041;-74
2022/01/08 00:46:42;;;;;;;3.03;2.50;;;;;;;1.10;100.00;100796.53;5002704;28;20081;-72
2022/01/08 00:49:09;;;;;;;4.40;2.17;;;;;;;0.98;99.70;100801.34;5006018;28;20183;-74
2022/01/08 00:51:37;;;;;;;4.20;1.02;;;;;;;0.89;99.88;100793.94;5005293;28;20051;-74
2022/01/08 00:54:05;;;;;;;2.60;1.95;;;;;;;0.87;99.61;100803.50;5005891;28;20760;-74
2022/01/08 00:56:32;;;;;;;1.30;1.02;;;;;;;0.80;99.61;100804.66;5007478;28;20045;-73
2022/01/08 00:58:58;;;;;;;6.32;1.98;;;;;;;0.75;99.76;100806.59;5005601;28;20060;-74
2022/01/08 01:01:27;;;;;;;3.03;2.15;;;;;;;0.75;99.79;100801.41;4993349;28;20407;-74
2022/01/08 01:03:54;;;;;;;2.65;2.35;;;;;;;0.77;99.57;100809.97;5012469;28;20044;-73
2022/01/08 01:06:20;;;;;;;4.88;2.63;;;;;;;0.75;99.77;100810.88;5013573;28;20049;-75
2022/01/08 01:08:47;;;;;;;4.60;3.20;;;;;;;0.71;99.73;100804.16;5014257;28;20037;-73
2022/01/08 01:11:15;;;;;;;2.33;1.60;;;;;;;0.73;99.78;100805.78;5004129;28;20152;-73
2022/01/08 01:13:45;;;;;;;3.83;2.10;;;;;;;0.72;99.41;100811.84;5007444;28;20057;-74
2022/01/08 01:16:11;;;;;;;4.22;2.28;;;;;;;0.68;99.56;100810.31;5005879;28;20068;-73
2022/01/08 01:18:38;;;;;;;2.92;2.10;;;;;;;0.64;99.84;100813.06;5004713;28;20088;-73
2022/01/08 01:21:05;;;;;;;2.45;1.95;;;;;;;0.72;100.00;100811.03;5004325;28;20115;-74
2022/01/08 01:23:36;;;;;;;3.42;2.33;;;;;;;0.75;100.00;100818.66;5002862;28;20104;-72
2022/01/08 01:26:06;;;;;;;2.10;1.85;;;;;;;0.70;100.00;100813.66;5003571;28;20045;-74
2022/01/08 01:28:46;;;;;;;5.90;2.83;;;;;;;0.66;99.84;100813.84;5008713;28;20103;-73
2022/01/08 01:42:40;;;;;;;2.45;1.77;;;;;;;1.09;100.00;100819.88;5010073;28;20042;-72
2022/01/08 01:47:57;;;;;;;2.35;1.63;;;;;;;1.03;100.00;100808.03;5008225;28;20064;-72
2022/01/08 01:50:23;;;;;;;1.75;1.55;;;;;;;1.16;100.00;100809.22;5007954;28;20141;-73
2022/01/08 01:52:50;;;;;;;2.72;2.10;;;;;;;1.13;100.00;100814.53;5007674;28;20053;-73
2022/01/08 01:55:17;;;;;;;2.63;2.13;;;;;;;1.03;100.00;100820.97;5010177;28;20049;-72
2022/01/08 01:57:43;;;;;;;2.15;1.75;;;;;;;0.96;100.00;100816.06;5009159;28;20049;-72
2022/01/08 02:00:13;;;;;;;2.67;1.90;;;;;;;0.92;100.00;100820.53;5008060;28;20060;-74
2022/01/08 02:02:40;;;;;;;3.72;2.03;;;;;;;1.04;100.00;100814.91;5007333;28;20050;-73
2022/01/08 02:05:07;;;;;;;4.63;3.45;;;;;;;0.90;100.00;100811.16;5010520;28;20037;-72
2022/01/08 02:07:34;;;;;;;8.35;2.28;;;;;;;0.94;100.00;100813.56;5014422;28;20057;-73
2022/01/08 02:10:01;;;;;;;6.45;3.45;;;;;;;0.96;100.00;100818.66;5017608;28;20053;-73
2022/01/08 02:12:32;;;;;;;5.80;4.07;;;;;;;0.77;100.00;100825.47;5020199;28;20402;-73
2022/01/08 02:14:59;;;;;;;5.07;2.28;;;;;;;0.72;100.00;100818.78;5020328;28;20038;-73
2022/01/08 02:17:27;;;;;;;1.95;1.48;;;;;;;0.87;100.00;100817.28;5007687;28;20037;-73
2022/01/08 02:19:57;;;;;;;2.50;2.30;;;;;;;0.96;100.00;100822.09;5022262;28;20038;-73
2022/01/08 02:22:24;;;;;;;2.80;1.92;;;;;;;0.88;100.00;100820.72;5009794;28;20118;-72
2022/01/08 02:24:51;;;;;;;4.43;2.72;;;;;;;0.75;100.00;100818.66;5006140;28;20656;-72
2022/01/08 02:27:18;;;;;;;4.20;3.08;;;;;;;0.63;100.00;100813.97;5009686;28;20049;-73
2022/01/08 02:29:46;;;;;;;3.22;2.88;;;;;;;0.61;100.00;100811.44;4989627;28;20061;-72
2022/01/08 02:32:16;;;;;;;5.32;3.38;;;;;;;0.60;100.00;100814.06;5008322;28;20045;-72
2022/01/08 02:34:45;;;;;;;11.00;2.67;;;;;;;0.47;99.90;100820.59;5009570;28;20037;-74
2022/01/08 02:37:14;;;;;;;2.92;2.10;;;;;;;0.62;100.00;100820.03;5007826;28;20125;-72
2022/01/08 02:39:42;;;;;;;3.28;2.53;;;;;;;0.63;100.00;100811.38;4985025;28;20049;-73
2022/01/08 02:42:13;;;;;;;4.65;2.88;;;;;;;0.61;100.00;100810.59;4994579;28;20154;-72
2022/01/08 02:44:44;;;;;;;20.40;3.05;;;;;;;0.63;100.00;100811.38;4999739;28;20048;-72
2022/01/08 02:47:14;;;;;;;4.30;2.42;;;;;;;0.73;100.00;100810.13;4995902;28;20062;-73
2022/01/08 02:49:51;;;;;;;2.42;2.15;;;;;;;0.68;100.00;100815.47;4983448;28;20099;-72
2022/01/08 02:52:19;;;;;;;3.13;2.55;;;;;;;0.78;100.00;100811.63;5002985;28;20045;-72
2022/01/08 02:54:46;;;;;;;2.45;1.63;;;;;;;0.88;100.00;100806.06;5003975;28;20050;-73
2022/01/08 02:57:13;;;;;;;3.13;2.42;;;;;;;0.88;100.00;100812.94;5008363;28;20073;-71
2022/01/08 02:59:39;;;;;;;3.00;2.40;;;;;;;0.82;100.00;100815.78;4990216;28;20056;-72
2022/01/08 03:02:06;;;;;;;13.25;3.40;;;;;;;0.79;100.00;100819.34;4992782;28;20931;-73
2022/01/08 03:04:32;;;;;;;3.60;2.42;;;;;;;0.91;100.00;100824.00;5005487;28;20045;-73
2022/01/08 03:06:59;;;;;;;13.00;2.85;;;;;;;0.89;100.00;100817.22;4991502;28;20107;-73
2022/01/08 03:09:28;;;;;;;5.30;3.83;;;;;;;0.83;100.00;100823.47;5005519;28;20049;-71
2022/01/08 03:11:54;;;;;;;9.57;4.20;;;;;;;0.80;100.00;100833.09;5011487;28;20532;-72
2022/01/08 03:14:21;;;;;;;3.95;1.75;;;;;;;0.76;100.00;100834.13;5014071;28;20037;-72
2022/01/08 03:16:47;;;;;;;3.53;2.75;;;;;;;0.81;100.00;100842.53;5016234;28;20053;-73
2022/01/08 03:19:15;;;;;;;2.05;1.85;;;;;;;0.91;100.00;100838.69;4991696;28;20149;-73
2022/01/08 03:21:45;;;;;;;3.30;2.78;;;;;;;0.79;100.00;100839.16;5006461;28;20046;-72
2022/01/08 03:24:16;;;;;;;3.03;2.22;;;;;;;0.75;100.00;100842.78;5007807;28;20117;-74
2022/01/08 03:26:44;;;;;;;3.33;2.42;;;;;;;0.77;100.00;100852.16;5006758;28;20052;-73
2022/01/08 03:29:11;;;;;;;4.45;2.70;;;;;;;0.73;100.00;100849.72;5007168;28;20084;-72
2022/01/08 03:31:37;;;;;;;5.38;3.72;;;;;;;0.82;100.00;100845.03;5005277;28;20041;-72
2022/01/08 03:34:05;;;;;;;4.03;3.30;;;;;;;0.67;100.00;100849.13;5007759;28;20468;-72
2022/01/08 03:36:31;;;;;;;2.30;2.10;;;;;;;0.69;100.00;100848.19;5008851;28;20046;-73
2022/01/08 03:38:58;;;;;;;5.40;3.78;;;;;;;0.69;100.00;100857.66;5006832;28;20046;-72
2022/01/08 03:41:24;;;;;;;3.33;2.65;;;;;;;0.79;100.00;100854.66;5008057;28;20045;-74
2022/01/08 03:43:52;;;;;;;4.68;2.85;;;;;;;0.68;100.00;100862.00;5006677;28;20053;-74
2022/01/08 03:46:21;;;;;;;4.93;2.47;;;;;;;0.70;100.00;100860.19;5004961;28;20049;-73
2022/01/08 03:49:10;;;;;;;3.08;2.75;;;;;;;0.82;100.00;100854.56;5005094;28;20053;-73
2022/01/08 03:51:35;;;;;;;3.10;1.83;;;;;;;0.79;100.00;100865.00;5007066;28;20056;-74
2022/01/08 03:54:02;;;;;;;3.13;2.08;;;;;;;0.84;100.00;100863.13;5003253;28;20048;-72
2022/01/08 03:56:29;;;;;;;20.58;2.85;;;;;;;0.79;100.00;100871.03;5005226;28;20045;-72
2022/01/08 03:58:57;;;;;;;6.18;2.45;;;;;;;0.81;100.00;100868.38;5003217;28;20052;-71
2022/01/08 04:01:24;;;;;;;6.57;2.95;;;;;;;0.75;100.00;100865.19;4986342;28;20061;-73
2022/01/08 04:03:50;;;;;;;4.63;2.85;;;;;;;0.67;100.00;100868.06;5004908;28;20046;-71
2022/01/08 04:06:17;;;;;;;6.15;3.22;;;;;;;0.74;100.00;100871.28;5006215;28;20067;-71
2022/01/08 04:08:43;;;;;;;2.90;2.60;;;;;;;0.73;100.00;100875.59;5006653;28;20049;-72
2022/01/08 04:11:10;;;;;;;4.18;2.78;;;;;;;0.64;100.00;100872.50;5006491;28;20135;-72
2022/01/08 04:13:40;;;;;;;5.28;3.03;;;;;;;0.63;100.00;100870.81;5003965;28;20034;-72
2022/01/08 04:16:11;;;;;;;3.15;2.20;;;;;;;0.71;100.00;100866.22;4989331;28;20072;-72
2022/01/08 04:18:38;;;;;;;4.72;2.75;;;;;;;0.63;100.00;100873.41;5010690;28;20042;-72
2022/01/08 04:21:25;;;;;;;4.38;2.80;;;;;;;0.79;100.00;100876.22;4992481;28;20146;-72
2022/01/08 04:23:55;;;;;;;4.60;3.22;;;;;;;0.72;100.00;100886.00;5003556;28;20049;-72
2022/01/08 04:26:23;;;;;;;7.72;2.83;;;;;;;0.60;100.00;100882.13;5005377;28;20051;-72
2022/01/08 04:28:52;;;;;;;3.13;1.98;;;;;;;0.65;100.00;100877.63;5007638;28;20522;-72
2022/01/08 04:31:21;;;;;;;2.33;1.85;;;;;;;0.68;100.00;100877.50;5004787;28;20116;-72
2022/01/08 04:33:48;;;;;;;4.88;2.63;;;;;;;0.76;100.00;100872.91;5007640;28;20052;-72
2022/01/08 04:36:14;;;;;;;3.60;2.38;;;;;;;0.60;100.00;100874.38;5006162;28;20050;-71
2022/01/08 04:38:41;;;;;;;3.17;2.47;;;;;;;0.65;100.00;100877.63;5007059;28;20069;-73
2022/01/08 04:41:08;;;;;;;2.45;1.80;;;;;;;0.57;100.00;100877.06;5009071;28;20036;-71
2022/01/08 04:43:37;;;;;;;4.47;2.92;;;;;;;0.51;100.00;100882.44;4996698;28;20661;-73
2022/01/08 04:46:04;;;;;;;3.40;2.65;;;;;;;0.48;100.00;100879.97;4991547;28;20198;-73
2022/01/08 04:48:32;;;;;;;2.95;2.05;;;;;;;0.52;100.00;100880.69;5009708;28;20056;-72
2022/01/08 04:50:58;;;;;;;5.50;3.22;;;;;;;0.49;100.00;100889.41;5018905;28;20080;-72
2022/01/08 04:53:25;;;;;;;2.53;2.03;;;;;;;0.43;100.00;100893.94;5024810;28;20045;-72
2022/01/08 04:55:52;;;;;;;3.78;3.28;;;;;;;0.42;100.00;100890.53;5028888;28;20061;-73
2022/01/08 04:58:18;;;;;;;3.70;2.47;;;;;;;0.33;100.00;100896.03;5028377;28;20046;-75
2022/01/08 05:00:46;;;;;;;3.03;2.20;;;;;;;0.38;100.00;100899.28;4990667;28;20053;-73
2022/01/08 05:03:12;;;;;;;3.60;2.78;;;;;;;0.28;100.00;100899.66;5002494;28;20046;-74
2022/01/08 05:05:42;;;;;;;2.78;2.15;;;;;;;0.24;100.00;100893.75;5002106;28;20051;-72
2022/01/08 05:08:09;;;;;;;3.38;2.38;;;;;;;0.21;100.00;100901.59;5008488;28;20144;-74
2022/01/08 05:10:36;;;;;;;3.22;2.47;;;;;;;0.14;100.00;100897.56;5007903;28;20049;-72
2022/01/08 05:13:05;;;;;;;4.22;2.67;;;;;;;0.28;100.00;100913.44;5005845;28;20049;-71
2022/01/08 05:15:32;;;;;;;2.03;1.83;;;;;;;0.42;100.00;100908.63;5004727;28;20061;-73
2022/01/08 05:17:58;;;;;;;4.72;2.45;;;;;;;0.37;100.00;100907.91;5002744;28;20057;-72
2022/01/08 05:20:29;;;;;;;2.22;1.40;;;;;;;0.63;100.00;100907.84;5003959;28;20041;-74
2022/01/08 05:23:00;;;;;;;1.92;1.38;;;;;;;0.57;100.00;100908.06;4987643;28;20488;-72
2022/01/08 05:25:28;;;;;;;3.47;2.22;;;;;;;0.67;100.00;100906.84;5012152;28;20037;-72
2022/01/08 05:27:55;;;;;;;2.65;2.08;;;;;;;0.55;100.00;100907.28;5015374;28;20037;-73
2022/01/08 05:30:23;;;;;;;7.47;2.67;;;;;;;0.42;100.00;100911.19;5001327;28;20252;-71
2022/01/08 05:32:51;;;;;;;2.53;2.08;;;;;;;0.33;100.00;100916.69;5005207;28;20068;-72
2022/01/08 05:35:17;;;;;;;2.95;2.17;;;;;;;0.28;100.00;100916.00;4998328;28;20046;-73
2022/01/08 05:37:44;;;;;;;1.67;1.55;;;;;;;0.27;100.00;100919.50;5009071;28;20120;-71
2022/01/08 05:40:12;;;;;;;2.95;2.38;;;;;;;0.16;100.00;100921.59;4998848;28;20160;-71
2022/01/08 05:42:39;;;;;;;6.03;1.27;;;;;;;0.15;100.00;100917.31;5008828;28;20041;-73
2022/01/08 05:45:10;;;;;;;18.77;2.13;;;;;;;0.26;100.00;100915.22;5005729;28;20045;-72
2022/01/08 05:47:36;;;;;;;4.68;3.05;;;;;;;0.27;100.00;100922.06;5002603;28;20050;-72
2022/01/08 05:50:04;;;;;;;2.85;2.08;;;;;;;0.29;100.00;100920.25;5005840;28;20057;-72
2022/01/08 05:52:30;;;;;;;15.30;2.45;;;;;;;0.28;100.00;100921.19;5005128;28;20068;-72
2022/01/08 05:54:57;;;;;;;8.25;2.13;;;;;;;0.33;100.00;100924.44;5005659;28;20049;-72
2022/01/08 05:57:25;;;;;;;2.92;2.22;;;;;;;0.37;100.00;100928.59;5003079;28;20129;-72
2022/01/08 05:59:52;;;;;;;8.43;3.55;;;;;;;0.39;100.00;100926.78;5003582;28;20041;-71
2022/01/08 06:02:18;;;;;;;12.60;2.63;;;;;;;0.32;100.00;100924.50;5005097;28;20049;-72
2022/01/08 06:04:45;;;;;;;2.72;2.53;;;;;;;0.29;100.00;100927.19;5003823;28;20516;-72
2022/01/08 06:07:12;;;;;;;1.92;1.38;;;;;;;0.41;100.00;100935.34;5004997;28;20053;-72
2022/01/08 06:09:38;;;;;;;4.22;3.20;;;;;;;0.43;100.00;100937.88;5008789;28;20054;-72
2022/01/08 06:12:06;;;;;;;1.83;1.70;;;;;;;0.42;100.00;100941.34;5009767;28;20048;-72
2022/01/08 06:14:34;;;;;;;1.67;1.48;;;;;;;0.58;100.00;100940.75;4990612;28;20488;-71
2022/01/08 06:17:00;;;;;;;1.58;1.45;;;;;;;0.53;100.00;100941.81;5005764;28;20116;-72
2022/01/08 06:19:27;;;;;;;2.53;1.75;;;;;;;0.56;100.00;100949.47;5006703;28;20049;-74
2022/01/08 06:21:54;;;;;;;2.22;1.90;;;;;;;0.44;100.00;100945.59;5009279;28;20045;-72
2022/01/08 06:24:21;;;;;;;1.65;0.95;;;;;;;0.39;100.00;100952.63;5011783;28;20056;-72
2022/01/08 06:26:47;;;;;;;5.80;1.52;;;;;;;0.38;100.00;100958.69;5014030;28;20068;-72
2022/01/08 06:29:14;;;;;;;2.05;1.88;;;;;;;0.36;100.00;100957.94;5011660;28;20112;-73
2022/01/08 06:31:42;;;;;;;4.25;1.95;;;;;;;0.46;100.00;100954.09;5009417;28;20487;-72
2022/01/08 06:34:09;;;;;;;4.90;2.63;;;;;;;0.39;100.00;100956.97;5003835;28;20057;-73
2022/01/08 06:36:36;;;;;;;1.70;1.60;;;;;;;0.36;100.00;100957.94;5008952;28;20057;-73
2022/01/08 06:39:03;;;;;;;2.38;1.10;;;;;;;0.40;100.00;100969.00;5012397;28;20049;-75
2022/01/08 06:41:30;;;;;;;3.50;1.75;;;;;;;0.40;100.00;100963.84;4990888;28;20064;-72
2022/01/08 06:43:57;;;;;;;1.92;1.20;;;;;;;0.32;100.00;100968.41;5011417;28;20073;-73
2022/01/08 06:46:23;;;;;;;3.97;2.10;;;;;;;0.30;100.00;100968.44;5005995;28;20044;-72
2022/01/08 06:48:51;;;;;;;2.80;1.73;;;;;;;0.38;100.00;100965.63;4991855;28;20172;-72
2022/01/08 06:51:18;;;;;;;4.65;1.52;;;;;;;0.33;100.00;100967.53;5005716;28;20064;-72
2022/01/08 06:53:45;;;;;;;3.22;2.25;;;;;;;0.27;100.00;100966.00;5004339;28;20053;-73
2022/01/08 06:56:11;;;;;;;2.97;1.83;;;;;;;0.30;100.00;100962.44;5004953;28;20049;-71
2022/01/08 06:58:38;;;;;;;12.98;1.55;;;;;;;0.21;100.00;100967.94;5014098;28;20049;-73
2022/01/08 07:01:05;;;;;;;2.78;2.10;;;;;;;0.20;100.00;100972.25;5022537;28;20049;-71
2022/01/08 07:03:31;;;;;;;1.80;1.50;;;;;;;0.27;100.00;100978.03;5006690;28;20048;-73
2022/01/08 07:05:59;;;;;;;1.35;1.02;;;;;;;0.25;100.00;100972.06;5006074;28;20132;-72
2022/01/08 07:08:29;;;;;;;4.90;2.10;;;;;;;0.19;100.00;100969.72;5018628;28;20042;-71
2022/01/08 07:10:55;;;;;;;2.10;1.63;;;;;;;0.11;100.00;100966.53;5012910;28;20046;-71
2022/01/08 07:13:22;;;;;;;2.67;2.03;;;;;;;0.07;100.00;100963.22;5010214;28;20042;-71
2022/01/08 07:15:48;;;;;;;1.85;1.40;;;;;;;0.16;100.00;100964.66;5019353;28;20160;-72
2022/01/08 07:18:15;;;;;;;2.03;1.48;;;;;;;0.13;100.00;100965.59;5018022;28;20124;-71
2022/01/08 07:20:42;;;;;;;6.45;2.95;;;;;;;0.26;100.00;100960.84;5020199;28;20029;-72
2022/01/08 07:23:10;;;;;;;3.30;2.10;;;;;;;0.33;100.00;100972.69;5023633;28;20069;-71
2022/01/08 07:25:36;;;;;;;3.17;2.20;;;;;;;0.37;100.00;100964.75;5023656;28;20045;-71
2022/01/08 07:28:03;;;;;;;2.28;1.50;;;;;;;0.37;100.00;100969.91;5031075;28;20083;-72
2022/01/08 07:30:29;;;;;;;2.20;1.75;;;;;;;0.31;100.00;100964.97;5031747;28;20101;-72
2022/01/08 07:32:56;;;;;;;10.93;2.60;;;;;;;0.43;100.00;100969.72;5043315;28;20033;-72
2022/01/08 07:35:23;;;;;;;6.53;2.22;;;;;;;0.43;100.00;100971.44;5010537;28;20194;-72
2022/01/08 07:37:51;;;;;;;2.80;2.45;;;;;;;0.36;100.00;100970.84;5024093;28;20100;-71
2022/01/08 07:40:20;;;;;;;2.90;2.60;;;;;;;0.33;100.00;100968.34;5008346;28;20042;-72
2022/01/08 07:42:48;;;;;;;4.95;2.58;;;;;;;0.35;100.00;100971.75;4999532;28;20041;-72
2022/01/08 07:45:15;;;;;;;2.72;1.70;;;;;;;0.34;100.00;100970.03;5012715;28;20045;-72
2022/01/08 07:47:41;;;;;;;8.82;3.53;;;;;;;0.39;100.00;100975.06;4998670;28;20053;-72
2022/01/08 07:50:08;;;;;;;3.72;2.20;;;;;;;0.46;100.00;100977.34;4998895;28;20053;-73
2022/01/08 07:52:37;;;;;;;2.70;1.35;;;;;;;0.59;100.00;100972.59;5015206;28;20079;-73
2022/01/08 07:55:04;;;;;;;4.28;2.05;;;;;;;0.56;100.00;100965.81;5012620;28;20038;-72
2022/01/08 07:57:34;;;;;;;1.92;1.70;;;;;;;0.65;100.00;100965.50;5014086;28;20057;-70
2022/01/08 08:00:01;;;;;;;2.03;1.50;;;;;;;0.72;100.00;100966.97;5016673;28;20129;-69
2022/01/08 08:02:28;;;;;;;12.27;2.47;;;;;;;0.77;100.00;100965.91;5016864;28;20083;-70
2022/01/08 08:04:57;;;;;;;3.33;1.95;;;;;;;0.90;100.00;100963.72;5020146;28;20049;-70
2022/01/08 08:07:28;;;;;;;1.35;0.85;;;;;;;0.98;100.00;100962.56;5015437;28;20077;-70
2022/01/08 08:09:55;;;;;;;2.78;2.08;;;;;;;1.00;100.00;100962.47;4999082;28;20056;-70
2022/01/08 08:12:22;;;;;;;3.05;1.98;;;;;;;1.02;100.00;100961.53;5016466;28;20049;-69
2022/01/08 08:14:50;;;;;;;7.68;2.17;;;;;;;1.08;100.00;100955.28;5018203;28;20049;-70
2022/01/08 08:17:17;;;;;;;5.07;3.13;;;;;;;1.06;100.00;100957.06;5017272;28;20072;-69
2022/01/08 08:19:43;;;;;;;4.82;2.35;;;;;;;1.04;100.00;100958.88;5017632;28;20046;-68
2022/01/08 08:22:10;;;;;;;7.88;2.47;;;;;;;1.03;100.00;100954.59;5021491;28;20054;-72
2022/01/08 08:24:36;;;;;;;20.45;2.00;;;;;;;1.04;100.00;100953.69;5018017;28;20061;-72
2022/01/08 08:27:03;;;;;;;3.42;2.78;;;;;;;1.06;100.00;100955.34;5019798;28;20132;-70
2022/01/08 08:29:30;;;;;;;2.47;2.10;;;;;;;1.03;100.00;100952.00;5011446;28;20601;-72
2022/01/08 08:31:58;;;;;;;3.50;2.90;;;;;;;1.07;100.00;100958.78;5019227;28;20049;-69
2022/01/08 08:34:25;;;;;;;9.90;2.75;;;;;;;1.09;100.00;100957.81;5014158;28;20044;-72
2022/01/08 08:36:51;;;;;;;5.35;3.35;;;;;;;1.16;100.00;100953.25;5016766;28;20052;-71
2022/01/08 08:39:18;;;;;;;6.15;3.33;;;;;;;1.26;100.00;100944.25;5013456;28;20042;-70
2022/01/08 08:41:45;;;;;;;5.70;3.15;;;;;;;1.31;100.00;100945.75;5016691;28;20030;-70
2022/01/08 08:44:11;;;;;;;4.13;2.50;;;;;;;1.35;100.00;100941.31;5002743;28;20053;-70
2022/01/08 08:46:38;;;;;;;2.42;1.73;;;;;;;1.46;100.00;100937.41;5014720;28;20045;-74
2022/01/08 08:49:06;;;;;;;6.43;2.95;;;;;;;1.58;100.00;100937.75;5012571;28;20042;-72
2022/01/08 08:51:33;;;;;;;8.68;4.57;;;;;;;1.58;100.00;100932.59;5010735;28;20050;-71
2022/01/08 08:53:59;;;;;;;6.05;2.85;;;;;;;1.69;100.00;100932.97;5011205;28;20052;-71
2022/01/08 08:56:27;;;;;;;8.13;3.58;;;;;;;1.73;100.00;100931.97;5012327;28;20108;-73
2022/01/08 08:58:54;;;;;;;13.30;3.40;;;;;;;1.82;100.00;100931.59;4995465;28;20140;-72
2022/01/08 09:01:21;;;;;;;4.68;3.63;;;;;;;1.81;100.00;100921.28;5008871;28;20042;-71
2022/01/08 09:03:47;;;;;;;2.75;2.50;;;;;;;1.86;100.00;100916.78;5017767;28;20037;-71
2022/01/08 09:06:15;;;;;;;5.15;2.75;;;;;;;1.89;100.00;100922.66;5007066;28;20064;-71
2022/01/08 09:08:42;;;;;;;5.18;3.63;;;;;;;1.90;100.00;100921.75;4998816;28;20073;-72
2022/01/08 09:11:09;;;;;;;5.00;2.83;;;;;;;1.94;100.00;100928.50;5016218;28;20049;-72
2022/01/08 09:13:38;;;;;;;10.55;5.40;;;;;;;1.93;100.00;100919.03;5015515;28;20042;-72
2022/01/08 09:16:05;;;;;;;5.15;2.30;;;;;;;2.00;100.00;100922.22;5007279;28;20393;-70
2022/01/08 09:18:32;;;;;;;3.33;2.80;;;;;;;2.00;100.00;100920.50;5010665;28;20048;-69
2022/01/08 09:20:58;;;;;;;6.28;4.47;;;;;;;2.02;100.00;100925.59;5019852;28;20046;-70
2022/01/08 09:23:26;;;;;;;6.10;4.03;;;;;;;2.06;100.00;100925.41;5015216;28;20048;-70
2022/01/08 09:25:53;;;;;;;6.47;3.63;;;;;;;2.08;100.00;100922.75;5016526;28;20042;-70
2022/01/08 09:28:19;;;;;;;7.80;4.35;;;;;;;2.10;100.00;100924.34;5009691;28;20049;-70
2022/01/08 09:30:46;;;;;;;3.35;2.92;;;;;;;2.17;100.00;100914.59;5019226;28;20038;-72
2022/01/08 09:33:13;;;;;;;9.68;4.07;;;;;;;2.23;100.00;100912.59;4999594;28;20080;-71
2022/01/08 09:35:40;;;;;;;11.98;4.78;;;;;;;2.29;100.00;100914.06;5013671;28;20074;-72
2022/01/08 09:38:06;;;;;;;7.68;4.03;;;;;;;2.37;100.00;100910.22;5009762;28;20046;-71
2022/01/08 09:40:35;;;;;;;5.78;3.67;;;;;;;2.41;99.87;100901.44;5017707;28;20045;-73
2022/01/08 09:43:04;;;;;;;4.65;3.72;;;;;;;2.49;99.33;100895.00;5017602;28;20061;-72
2022/01/08 09:45:30;;;;;;;9.82;4.95;;;;;;;2.56;99.22;100899.00;5019826;28;20052;-70
2022/01/08 09:47:57;;;;;;;7.85;4.18;;;;;;;2.53;98.90;100888.78;5022265;28;20065;-72
2022/01/08 09:50:24;;;;;;;6.18;2.97;;;;;;;2.58;98.85;100897.19;5015975;28;20071;-73
2022/01/08 09:52:53;;;;;;;7.97;3.53;;;;;;;2.64;98.59;100898.66;5022259;28;20144;-70
2022/01/08 09:55:20;;;;;;;9.35;4.00;;;;;;;2.73;98.46;100898.25;5016874;28;20125;-70
2022/01/08 09:57:48;;;;;;;4.88;2.63;;;;;;;2.74;97.68;100889.56;5017942;28;20045;-73
2022/01/08 10:00:17;;;;;;;5.38;4.75;;;;;;;2.77;97.51;100885.09;5017698;28;20053;-72
2022/01/08 10:02:44;;;;;;;6.20;3.42;;;;;;;2.83;97.79;100879.59;5025375;28;20052;-71
2022/01/08 10:05:12;;;;;;;12.23;4.53;;;;;;;2.91;97.67;100863.72;5034293;28;20059;-72
2022/01/08 10:07:40;;;;;;;4.15;2.92;;;;;;;3.02;96.92;100864.03;5039388;28;20049;-72
2022/01/08 10:10:12;;;;;;;12.50;4.75;;;;;;;3.13;96.71;100854.00;5033333;28;20037;-74
2022/01/08 10:12:46;;;;;;;3.60;3.00;;;;;;;3.19;96.20;100850.19;5018858;28;20041;-72
2022/01/08 10:18:00;;;;;;;4.45;3.00;;;;;;;3.42;95.63;100849.94;5018881;28;20042;-73
2022/01/08 10:20:35;;;;;;;3.85;2.60;;;;;;;3.58;95.08;100850.88;5020664;28;20112;-72
2022/01/08 10:23:16;;;;;;;4.60;3.60;;;;;;;3.68;94.06;100831.31;5015702;28;20042;-72
2022/01/08 10:25:55;;;;;;;7.07;3.95;;;;;;;3.72;92.71;100832.00;5019355;28;20456;-68
2022/01/08 10:28:33;;;;;;;6.03;3.13;;;;;;;3.68;92.43;100820.94;5015985;28;20052;-70
2022/01/08 10:31:09;;;;;;;7.28;3.55;;;;;;;3.64;92.93;100813.38;5016540;28;20131;-69
2022/01/08 10:33:36;;;;;;;5.82;3.80;;;;;;;3.55;92.82;100801.69;5014722;28;20046;-74
2022/01/08 10:36:03;;;;;;;6.55;2.83;;;;;;;3.54;92.71;100794.81;5019984;28;20132;-74
2022/01/08 10:38:30;;;;;;;7.13;3.85;;;;;;;3.55;92.20;100787.84;5012579;28;20141;-70
2022/01/08 10:40:58;;;;;;;4.82;2.55;;;;;;;3.54;91.20;100784.44;5021116;28;20044;-72
2022/01/08 10:43:27;;;;;;;5.50;3.20;;;;;;;3.58;92.01;100772.94;5019440;28;20045;-73
2022/01/08 10:45:54;;;;;;;4.97;2.80;;;;;;;3.61;91.64;100757.22;5020115;28;20108;-72
2022/01/08 10:48:30;;;;;;;6.53;4.43;;;;;;;3.68;91.99;100755.16;5020844;28;20051;-72
2022/01/08 10:51:09;;;;;;;5.88;3.88;;;;;;;3.65;91.11;100750.94;5016792;28;20053;-74
2022/01/08 10:54:04;;;;;;;6.05;3.63;;;;;;;3.74;91.38;100747.06;5012790;28;20037;-69
2022/01/08 10:56:32;;;;;;;3.92;2.92;;;;;;;3.77;90.35;100744.31;5020093;28;20045;-70
2022/01/08 10:59:01;;;;;;;20.90;5.60;;;;;;;3.74;90.41;100729.69;5012705;28;20041;-71
2022/01/08 11:01:43;;;;;;;5.28;4.00;;;;;;;3.77;90.62;100715.72;5014009;28;20077;-68
2022/01/08 11:04:13;;;;;;;16.40;5.85;;;;;;;3.84;89.83;100715.31;5017554;28;20048;-72
2022/01/08 11:06:59;;;;;;;7.43;2.47;;;;;;;3.78;89.91;100712.19;5016275;28;20056;-70
2022/01/08 11:09:27;;;;;;;8.75;2.75;;;;;;;3.79;90.18;100711.28;5018107;28;20401;-74
2022/01/08 11:11:56;;;;;;;10.15;4.65;;;;;;;3.82;90.19;100698.97;5016969;28;20194;-72
2022/01/08 11:17:13;;;;;;;3.42;2.38;;;;;;;3.86;88.70;100684.09;5015577;28;20064;-73
2022/01/08 11:19:44;;;;;;;4.72;2.42;;;;;;;3.91;88.47;100682.06;5011564;28;20073;-73
2022/01/08 11:22:13;;;;;;;5.53;3.28;;;;;;;3.90;88.25;100686.41;4996037;28;20053;-71
2022/01/08 11:24:41;;;;;;;10.15;3.28;;;;;;;3.96;87.39;100678.31;5017942;28;20042;-73
2022/01/08 11:27:08;;;;;;;7.18;3.83;;;;;;;3.98;87.87;100663.50;5012709;28;20124;-71
2022/01/08 11:29:35;;;;;;;12.35;5.00;;;;;;;4.06;88.19;100661.31;5016318;28;20112;-72
2022/01/08 11:32:04;;;;;;;4.35;2.75;;;;;;;4.06;86.98;100645.72;5006315;28;20053;-72
2022/01/08 11:34:32;;;;;;;7.40;3.33;;;;;;;4.23;87.15;100627.41;5016232;28;20045;-71
2022/01/08 11:37:00;;;;;;;8.38;3.13;;;;;;;4.41;86.05;100631.59;5009511;28;20053;-72
2022/01/08 11:39:28;;;;;;;5.78;3.08;;;;;;;4.62;85.51;100630.41;5018122;28;20049;-72
2022/01/08 11:41:56;;;;;;;4.88;3.00;;;;;;;4.63;85.13;100603.47;5017792;28;20103;-73
2022/01/08 11:44:23;;;;;;;3.75;2.65;;;;;;;4.66;84.94;100600.69;5017148;28;20509;-72
2022/01/08 11:46:51;;;;;;;4.03;1.65;;;;;;;4.80;84.04;100610.19;5019895;28;20060;-73
2022/01/08 11:49:18;;;;;;;8.60;2.65;;;;;;;4.80;81.92;100606.78;5013937;28;20052;-72